Time;durP1;ratioP1;P1;durP2;ratioP2;P2;SDS_P1;SDS_P2;PMS_P1;PMS_P2;Temp;Humidity;BMP_temperature;BMP_pressure;BME280_temperature;BME280_humidity;BME280_pressure;Samples;Min_cycle;Max_cycle;Signal;HPM_P1;HPM_P2
2022/04/23 00:02:09;;;;;;;14.40;13.10;;;;;;;10.83;69.80;96725.03;4976458;28;20572;-71
2022/04/23 00:04:37;;;;;;;15.10;13.20;;;;;;;10.85;69.79;96717.59;4976426;28;20263;-71
2022/04/23 00:07:04;;;;;;;15.77;13.53;;;;;;;10.76;71.07;96716.47;4974603;28;20552;-71
2022/04/23 00:09:30;;;;;;;14.67;13.33;;;;;;;10.76;70.39;96711.16;4975488;28;20218;-71
2022/04/23 00:11:58;;;;;;;13.77;12.47;;;;;;;10.73;70.91;96714.31;4976161;28;20215;-71
2022/04/23 00:14:25;;;;;;;14.23;12.83;;;;;;;10.58;71.81;96709.66;4975891;28;20738;-71
2022/04/23 00:16:51;;;;;;;15.23;13.73;;;;;;;10.62;71.48;96709.94;4976068;28;20707;-71
2022/04/23 00:19:18;;;;;;;14.17;12.80;;;;;;;10.63;71.04;96709.72;4973310;28;20208;-71
2022/04/23 00:21:45;;;;;;;13.30;11.97;;;;;;;10.65;71.53;96710.28;4972876;28;20215;-71
2022/04/23 00:24:11;;;;;;;14.27;12.77;;;;;;;10.67;71.27;96705.50;4976073;28;20216;-71
2022/04/23 00:26:39;;;;;;;14.40;12.90;;;;;;;10.59;72.12;96705.94;4975671;28;20216;-71
2022/04/23 00:29:06;;;;;;;15.37;13.87;;;;;;;10.57;72.61;96715.22;4975911;28;20266;-71
2022/04/23 00:31:32;;;;;;;14.03;12.63;;;;;;;10.52;72.88;96718.66;4975524;28;20212;-71
2022/04/23 00:33:59;;;;;;;14.33;12.20;;;;;;;10.53;72.99;96719.44;4975815;28;20335;-70
2022/04/23 00:36:28;;;;;;;12.93;11.63;;;;;;;10.51;73.75;96721.53;4973636;28;20214;-71
2022/04/23 00:38:54;;;;;;;13.87;12.03;;;;;;;10.58;73.68;96724.78;4975437;28;20227;-70
2022/04/23 00:44:07;;;;;;;13.03;11.70;;;;;;;10.54;74.08;96715.75;4975799;28;20170;-71
2022/04/23 00:46:33;;;;;;;13.57;12.27;;;;;;;10.53;74.29;96717.59;4975650;28;20226;-71
2022/04/23 00:49:00;;;;;;;15.27;12.07;;;;;;;10.49;74.56;96718.31;4975202;28;20218;-71
2022/04/23 00:51:29;;;;;;;13.40;12.20;;;;;;;10.48;74.56;96724.69;4974672;28;20211;-71
2022/04/23 00:53:57;;;;;;;12.87;11.47;;;;;;;10.36;75.33;96724.84;4975424;28;20249;-71
2022/04/23 00:56:24;;;;;;;12.00;10.87;;;;;;;10.48;74.67;96724.69;4974600;28;20212;-71
2022/04/23 00:58:51;;;;;;;13.07;11.27;;;;;;;10.58;74.35;96725.59;4975187;28;20242;-71
2022/04/23 01:01:23;;;;;;;12.60;11.50;;;;;;;10.45;74.83;96723.34;4975142;28;20549;-71
2022/04/23 01:03:50;;;;;;;12.53;11.43;;;;;;;10.43;75.32;96717.50;4975716;28;20193;-71
2022/04/23 01:06:18;;;;;;;12.30;11.10;;;;;;;10.45;75.18;96720.69;4975082;28;20219;-71
2022/04/23 01:08:46;;;;;;;12.27;11.07;;;;;;;10.41;75.54;96721.44;4975041;28;20753;-71
2022/04/23 01:11:13;;;;;;;11.80;10.60;;;;;;;10.47;75.43;96721.25;4973986;28;20215;-71
2022/04/23 01:13:43;;;;;;;11.43;10.33;;;;;;;10.37;75.76;96718.47;4975072;28;20703;-71
2022/04/23 01:16:09;;;;;;;11.23;10.17;;;;;;;10.29;76.88;96710.97;4975102;28;20307;-71
2022/04/23 01:18:41;;;;;;;12.00;10.77;;;;;;;10.19;77.58;96712.69;4975066;28;20227;-71
2022/04/23 01:21:10;;;;;;;12.00;10.90;;;;;;;10.25;77.05;96715.16;4975149;28;20197;-71
2022/04/23 01:23:40;;;;;;;11.23;10.20;;;;;;;10.26;77.57;96707.97;4975071;28;20291;-71
2022/04/23 01:26:08;;;;;;;10.93;9.83;;;;;;;10.27;77.57;96694.47;4973790;28;20226;-70
2022/04/23 01:28:39;;;;;;;10.83;9.83;;;;;;;10.32;77.63;96702.47;4974633;28;20797;-70
2022/04/23 01:31:06;;;;;;;10.63;9.70;;;;;;;10.33;77.58;96700.63;4974704;28;20232;-70
2022/04/23 01:33:36;;;;;;;10.97;9.97;;;;;;;10.28;78.06;96698.72;4974871;28;20323;-71
2022/04/23 01:36:03;;;;;;;10.50;9.60;;;;;;;10.34;77.93;96707.53;4974940;28;20207;-70
2022/04/23 01:38:30;;;;;;;10.30;9.30;;;;;;;10.26;78.22;96703.47;4975063;28;20238;-71
2022/04/23 01:40:56;;;;;;;11.47;10.47;;;;;;;10.32;77.65;96704.34;4973621;28;20299;-71
2022/04/23 01:43:22;;;;;;;10.47;9.47;;;;;;;10.28;78.03;96711.22;4974531;28;20210;-70
2022/04/23 01:45:49;;;;;;;11.37;10.17;;;;;;;10.21;78.15;96714.06;4974499;28;20546;-70
2022/04/23 01:48:15;;;;;;;11.70;10.60;;;;;;;10.20;78.57;96706.34;4974371;28;20251;-71
2022/04/23 01:50:42;;;;;;;12.37;11.27;;;;;;;10.30;78.62;96704.59;4974744;28;20212;-71
2022/04/23 01:53:08;;;;;;;11.77;10.57;;;;;;;10.11;79.71;96705.97;4974667;28;20274;-70
2022/04/23 01:55:34;;;;;;;11.47;10.40;;;;;;;10.08;80.37;96713.63;4974939;28;20208;-71
2022/04/23 01:58:01;;;;;;;12.07;10.97;;;;;;;10.03;81.14;96703.72;4970107;28;20223;-70
2022/04/23 02:00:27;;;;;;;11.53;10.53;;;;;;;9.96;81.57;96710.28;4974712;28;20204;-70
2022/04/23 02:02:57;;;;;;;12.30;11.20;;;;;;;9.95;81.70;96709.47;4974577;28;20215;-71
2022/04/23 02:05:23;;;;;;;11.70;10.70;;;;;;;9.95;81.89;96716.63;4974195;28;20642;-71
2022/04/23 02:07:50;;;;;;;12.43;11.23;;;;;;;9.92;82.19;96714.47;4974435;28;20234;-70
2022/04/23 02:10:17;;;;;;;12.93;11.77;;;;;;;9.91;82.32;96708.34;4974596;28;20216;-71
2022/04/23 02:12:45;;;;;;;11.83;10.83;;;;;;;9.82;83.21;96717.00;4976003;28;20224;-71
2022/04/23 02:15:13;;;;;;;13.43;12.20;;;;;;;9.73;83.46;96718.47;4978173;28;20223;-71
2022/04/23 02:17:45;;;;;;;12.60;11.53;;;;;;;9.70;84.15;96714.47;4978340;28;20335;-71
2022/04/23 02:20:14;;;;;;;11.93;10.93;;;;;;;9.67;84.45;96711.47;4978498;28;20215;-71
2022/04/23 02:22:41;;;;;;;13.47;12.17;;;;;;;9.67;84.49;96711.47;4978017;28;20730;-71
2022/04/23 02:25:08;;;;;;;12.20;11.10;;;;;;;9.65;84.71;96711.72;4978277;28;20215;-71
2022/04/23 02:27:49;;;;;;;12.90;11.77;;;;;;;9.60;85.19;96716.97;4978132;28;20224;-71
2022/04/23 02:30:20;;;;;;;13.10;12.00;;;;;;;9.57;85.35;96706.84;4976440;28;20219;-71
2022/04/23 02:32:48;;;;;;;13.77;12.57;;;;;;;9.51;86.17;96707.03;4978378;28;20219;-71
2022/04/23 02:35:16;;;;;;;13.23;12.00;;;;;;;9.49;86.19;96711.75;4978143;28;20215;-71
2022/04/23 02:37:45;;;;;;;12.90;11.80;;;;;;;9.41;86.82;96704.25;4979025;28;20228;-71
2022/04/23 02:40:13;;;;;;;13.53;12.33;;;;;;;9.31;87.63;96704.88;4978205;28;20214;-71
2022/04/23 02:42:39;;;;;;;12.63;11.53;;;;;;;9.27;87.67;96702.94;4977993;28;20208;-71
2022/04/23 02:45:10;;;;;;;13.20;11.80;;;;;;;9.21;88.11;96703.94;4976202;28;20208;-71
2022/04/23 02:47:44;;;;;;;13.70;12.50;;;;;;;9.14;88.72;96711.25;4977605;28;20232;-70
2022/04/23 02:50:10;;;;;;;12.80;11.70;;;;;;;9.08;89.29;96714.88;4977840;28;20219;-71
2022/04/23 02:52:38;;;;;;;14.00;12.70;;;;;;;9.07;89.26;96708.78;4977750;28;20251;-71
2022/04/23 02:55:05;;;;;;;14.43;13.07;;;;;;;9.11;89.56;96717.84;4977748;28;20204;-72
2022/04/23 02:57:32;;;;;;;13.63;12.33;;;;;;;9.06;89.95;96714.31;4977921;28;20235;-71
2022/04/23 02:59:58;;;;;;;14.53;13.13;;;;;;;9.08;89.86;96718.31;4977671;28;20576;-71
2022/04/23 03:02:24;;;;;;;13.90;12.70;;;;;;;9.13;89.97;96712.28;4975554;28;20592;-71
2022/04/23 03:04:51;;;;;;;14.83;13.53;;;;;;;9.07;90.31;96713.25;4977507;28;20701;-71
2022/04/23 03:07:18;;;;;;;14.50;13.27;;;;;;;9.17;90.16;96716.88;4976200;28;20596;-71
2022/04/23 03:09:45;;;;;;;14.00;12.70;;;;;;;9.18;90.07;96707.06;4977413;28;20557;-71
2022/04/23 03:12:12;;;;;;;15.37;13.97;;;;;;;9.16;90.19;96711.81;4977609;28;20207;-71
2022/04/23 03:14:38;;;;;;;13.77;12.57;;;;;;;9.14;90.38;96713.91;4976096;28;20242;-71
2022/04/23 03:17:04;;;;;;;14.37;13.13;;;;;;;9.13;90.69;96720.25;4977089;28;20234;-71
2022/04/23 03:19:31;;;;;;;14.57;13.27;;;;;;;9.17;90.40;96724.03;4977162;28;20212;-71
2022/04/23 03:21:57;;;;;;;15.30;13.90;;;;;;;9.16;90.16;96725.88;4976707;28;20652;-71
2022/04/23 03:24:24;;;;;;;14.43;13.03;;;;;;;9.20;89.93;96724.34;4977318;28;20200;-70
2022/04/23 03:26:50;;;;;;;14.13;12.93;;;;;;;9.20;89.43;96712.94;4977084;28;20239;-71
2022/04/23 03:29:16;;;;;;;14.60;13.30;;;;;;;9.13;90.04;96715.75;4977065;28;20208;-71
2022/04/23 03:31:43;;;;;;;14.07;12.67;;;;;;;9.25;89.31;96716.47;4976100;28;20211;-71
2022/04/23 03:34:09;;;;;;;13.60;12.40;;;;;;;9.14;89.74;96712.06;4976900;28;20235;-71
2022/04/23 03:36:35;;;;;;;13.57;12.47;;;;;;;9.05;90.38;96716.16;4976806;28;20208;-71
2022/04/23 03:39:02;;;;;;;13.17;11.97;;;;;;;9.13;90.08;96721.06;4972537;28;20243;-70
2022/04/23 03:41:28;;;;;;;12.97;11.87;;;;;;;9.04;90.49;96717.19;4976528;28;20208;-71
2022/04/23 03:43:55;;;;;;;13.80;12.60;;;;;;;9.15;89.33;96718.16;4976710;28;20200;-71
2022/04/23 03:46:21;;;;;;;12.27;11.07;;;;;;;9.10;88.98;96721.53;4976604;28;20208;-70
2022/04/23 03:48:47;;;;;;;11.10;10.10;;;;;;;9.04;89.20;96719.03;4976297;28;20235;-70
2022/04/23 03:51:14;;;;;;;11.33;10.33;;;;;;;8.94;89.67;96717.03;4976653;28;20212;-70
2022/04/23 03:53:40;;;;;;;11.23;10.23;;;;;;;8.90;89.97;96709.81;4974379;28;20227;-71
2022/04/23 03:56:07;;;;;;;10.47;9.53;;;;;;;8.84;89.99;96708.94;4976605;28;20223;-70
2022/04/23 03:58:33;;;;;;;11.50;10.40;;;;;;;8.77;90.43;96702.97;4976183;28;20279;-70
2022/04/23 04:00:59;;;;;;;11.17;10.17;;;;;;;8.78;90.38;96711.75;4976160;28;20219;-71
2022/04/23 04:03:26;;;;;;;11.00;10.00;;;;;;;8.65;91.14;96702.22;4976459;28;20200;-70
2022/04/23 04:05:53;;;;;;;11.30;10.20;;;;;;;8.62;91.31;96702.72;4976371;28;20270;-70
2022/04/23 04:08:19;;;;;;;11.30;10.33;;;;;;;8.51;92.09;96716.81;4976207;28;20228;-70
2022/04/23 04:10:46;;;;;;;11.67;10.57;;;;;;;8.58;91.64;96719.31;4972642;28;20211;-70
2022/04/23 04:13:14;;;;;;;11.70;10.70;;;;;;;8.46;92.20;96721.25;4975300;28;20224;-71
2022/04/23 04:15:45;;;;;;;11.57;10.47;;;;;;;8.44;92.53;96715.38;4975941;28;20214;-71
2022/04/23 04:18:12;;;;;;;11.10;10.20;;;;;;;8.49;92.18;96718.91;4976140;28;20227;-70
2022/04/23 04:20:40;;;;;;;11.27;10.17;;;;;;;8.57;91.74;96710.59;4976161;28;20215;-71
2022/04/23 04:23:07;;;;;;;11.73;10.67;;;;;;;8.58;91.20;96709.56;4975988;28;20208;-70
2022/04/23 04:25:35;;;;;;;11.93;10.80;;;;;;;8.49;91.84;96705.69;4975167;28;20208;-70
2022/04/23 04:28:02;;;;;;;11.80;10.80;;;;;;;8.54;91.64;96707.59;4975961;28;20228;-70
2022/04/23 04:31:46;;;;;;;12.40;11.30;;;;;;;8.47;91.55;96697.16;4975988;28;20208;-71
2022/04/23 04:33:15;;;;;;;11.73;10.70;;;;;;;8.55;91.66;96715.31;4975440;28;20231;-71
2022/04/23 04:35:42;;;;;;;11.57;10.57;;;;;;;8.55;91.25;96710.00;4974807;28;20212;-70
2022/04/23 04:38:08;;;;;;;12.07;11.07;;;;;;;8.52;91.29;96712.34;4975552;28;20243;-71
2022/04/23 04:40:35;;;;;;;11.87;10.77;;;;;;;8.50;91.93;96717.88;4973997;28;20220;-71
2022/04/23 04:43:01;;;;;;;11.80;10.70;;;;;;;8.53;91.54;96719.25;4975608;28;20204;-71
2022/04/23 04:45:28;;;;;;;13.23;12.03;;;;;;;8.57;91.63;96715.91;4975299;28;20212;-71
2022/04/23 04:47:54;;;;;;;12.40;11.30;;;;;;;8.69;91.81;96721.91;4975255;28;20719;-71
2022/04/23 04:50:20;;;;;;;11.53;10.43;;;;;;;8.69;90.57;96716.63;4975385;28;20204;-71
2022/04/23 04:52:47;;;;;;;11.87;10.77;;;;;;;8.76;90.56;96725.22;4974956;28;20215;-71
2022/04/23 04:55:13;;;;;;;11.10;10.10;;;;;;;8.84;89.41;96731.97;4973767;28;20234;-71
2022/04/23 04:57:39;;;;;;;11.17;10.17;;;;;;;8.88;89.57;96731.25;4975090;28;20235;-71
2022/04/23 05:00:06;;;;;;;12.07;10.87;;;;;;;9.04;88.59;96722.50;4975434;28;20218;-71
2022/04/23 05:02:33;;;;;;;11.90;10.80;;;;;;;9.11;88.19;96717.03;4975424;28;20211;-71
2022/04/23 05:04:59;;;;;;;11.33;10.33;;;;;;;9.14;88.18;96730.59;4975350;28;20230;-71
2022/04/23 05:07:25;;;;;;;12.57;11.37;;;;;;;8.94;89.03;96729.47;4974916;28;20235;-71
2022/04/23 05:09:52;;;;;;;11.10;10.17;;;;;;;9.00;88.84;96718.72;4975181;28;20219;-71
2022/04/23 05:12:18;;;;;;;11.47;10.47;;;;;;;9.06;88.63;96725.69;4973952;28;20208;-70
2022/04/23 05:14:44;;;;;;;12.40;11.10;;;;;;;9.18;88.25;96725.63;4975009;28;20227;-71
2022/04/23 05:17:11;;;;;;;11.10;10.07;;;;;;;9.15;87.27;96720.81;4975079;28;20232;-71
2022/04/23 05:19:37;;;;;;;11.70;10.50;;;;;;;9.37;86.21;96727.78;4975092;28;20208;-71
2022/04/23 05:22:04;;;;;;;11.97;10.87;;;;;;;9.25;87.38;96731.56;4974870;28;20204;-71
2022/04/23 05:24:30;;;;;;;11.57;10.57;;;;;;;9.40;86.35;96724.66;4975027;28;20203;-71
2022/04/23 05:26:56;;;;;;;12.17;10.93;;;;;;;9.20;86.48;96736.81;4973842;28;20228;-71
2022/04/23 05:29:23;;;;;;;12.67;11.47;;;;;;;9.41;86.70;96746.69;4974156;28;20675;-71
2022/04/23 05:31:49;;;;;;;12.83;11.53;;;;;;;9.36;85.75;96743.94;4974622;28;20564;-71
2022/04/23 05:34:15;;;;;;;12.20;11.10;;;;;;;9.50;85.99;96740.69;4974845;28;20231;-71
2022/04/23 05:36:42;;;;;;;11.90;10.80;;;;;;;9.33;85.32;96749.72;4974946;28;20223;-71
2022/04/23 05:39:08;;;;;;;12.13;11.03;;;;;;;9.29;85.83;96746.78;4974621;28;20219;-71
2022/04/23 05:41:35;;;;;;;11.53;10.43;;;;;;;9.46;85.78;96752.84;4974385;28;20204;-71
2022/04/23 05:44:01;;;;;;;12.40;11.30;;;;;;;9.46;85.38;96744.09;4973807;28;20199;-71
2022/04/23 05:46:28;;;;;;;11.90;10.80;;;;;;;9.54;85.04;96751.63;4974628;28;20212;-71
2022/04/23 05:48:55;;;;;;;11.80;10.70;;;;;;;9.60;85.43;96755.97;4974696;28;20239;-71
2022/04/23 05:51:23;;;;;;;11.17;10.07;;;;;;;9.50;84.79;96753.19;4974759;28;20207;-71
2022/04/23 05:53:49;;;;;;;11.47;10.47;;;;;;;9.48;85.02;96752.59;4974605;28;20314;-71
2022/04/23 05:56:16;;;;;;;11.93;10.87;;;;;;;9.75;83.66;96754.34;4974760;28;20207;-71
2022/04/23 05:58:42;;;;;;;11.23;10.23;;;;;;;9.68;83.53;96759.00;4974508;28;20224;-71
2022/04/23 06:01:08;;;;;;;12.07;10.97;;;;;;;9.91;83.43;96760.66;4972705;28;20211;-71
2022/04/23 06:03:35;;;;;;;10.43;9.53;;;;;;;9.98;82.42;96762.06;4974585;28;20212;-71
2022/04/23 06:06:01;;;;;;;10.17;9.13;;;;;;;9.70;82.98;96762.22;4974206;28;20212;-71
2022/04/23 06:08:28;;;;;;;11.23;10.03;;;;;;;9.91;83.74;96768.63;4974178;28;20727;-71
2022/04/23 06:10:54;;;;;;;9.87;9.07;;;;;;;9.85;82.62;96769.56;4974356;28;20214;-71
2022/04/23 06:13:20;;;;;;;9.80;9.00;;;;;;;9.79;82.72;96770.56;4974216;28;20211;-71
2022/04/23 06:15:47;;;;;;;10.57;9.67;;;;;;;10.04;82.90;96781.50;4974338;28;20561;-71
2022/04/23 06:18:13;;;;;;;10.77;9.77;;;;;;;10.26;81.56;96774.38;4972603;28;20600;-70
2022/04/23 06:20:39;;;;;;;10.67;9.77;;;;;;;10.17;82.04;96775.88;4974195;28;20565;-70
2022/04/23 06:23:06;;;;;;;10.40;9.50;;;;;;;10.28;80.97;96781.06;4974377;28;20208;-71
2022/04/23 06:25:33;;;;;;;9.70;8.90;;;;;;;10.16;80.46;96776.91;4973958;28;20570;-71
2022/04/23 06:27:59;;;;;;;10.50;9.50;;;;;;;10.01;81.72;96784.66;4973904;28;20675;-71
2022/04/23 06:30:25;;;;;;;11.00;10.00;;;;;;;10.26;81.42;96788.47;4973320;28;20227;-71
2022/04/23 06:32:52;;;;;;;10.47;9.57;;;;;;;10.28;81.06;96785.59;4971767;28;20337;-71
2022/04/23 06:35:19;;;;;;;10.77;9.87;;;;;;;10.34;81.28;96781.91;4973828;28;20228;-71
2022/04/23 06:37:47;;;;;;;10.17;9.23;;;;;;;10.32;80.67;96787.47;4973932;28;20232;-71
2022/04/23 06:40:13;;;;;;;10.13;9.13;;;;;;;10.76;78.79;96797.03;4972480;28;20216;-71
2022/04/23 06:42:41;;;;;;;9.23;8.40;;;;;;;10.76;78.33;96794.34;4974227;28;20218;-71
2022/04/23 06:45:08;;;;;;;9.50;8.70;;;;;;;10.50;79.27;96795.13;4973866;28;20211;-71
2022/04/23 06:47:34;;;;;;;9.40;8.60;;;;;;;10.52;80.04;96792.22;4973142;28;20240;-71
2022/04/23 06:50:00;;;;;;;9.47;8.67;;;;;;;10.80;78.57;96797.31;4973812;28;20303;-71
2022/04/23 06:52:27;;;;;;;8.73;8.03;;;;;;;10.72;78.02;96792.44;4974348;28;20208;-71
2022/04/23 06:54:55;;;;;;;8.33;7.63;;;;;;;10.64;78.20;96788.38;4974137;28;20243;-71
2022/04/23 06:57:24;;;;;;;8.07;7.37;;;;;;;10.86;77.84;96801.66;4974500;28;20232;-71
2022/04/23 06:59:54;;;;;;;8.13;7.40;;;;;;;10.70;76.75;96790.06;4977482;28;20730;-71
2022/04/23 07:02:21;;;;;;;8.00;7.30;;;;;;;10.88;76.67;96786.22;4977772;28;20572;-71
2022/04/23 07:04:47;;;;;;;7.90;7.20;;;;;;;10.98;76.67;96781.00;4975934;28;20204;-71
2022/04/23 07:07:14;;;;;;;8.13;7.43;;;;;;;10.98;77.01;96787.13;4977179;28;20224;-71
2022/04/23 07:09:40;;;;;;;7.97;7.27;;;;;;;10.83;76.73;96780.88;4977416;28;20556;-71
2022/04/23 07:12:07;;;;;;;7.73;7.03;;;;;;;10.69;76.83;96798.28;4977091;28;20701;-71
2022/04/23 07:14:34;;;;;;;8.50;7.80;;;;;;;10.87;76.92;96796.06;4977284;28;20239;-71
2022/04/23 07:17:00;;;;;;;8.20;7.50;;;;;;;10.89;77.03;96790.50;4977438;28;20236;-71
2022/04/23 07:19:26;;;;;;;7.90;7.20;;;;;;;11.09;76.33;96796.81;4975313;28;20212;-71
2022/04/23 07:21:53;;;;;;;7.87;7.27;;;;;;;11.27;75.10;96787.66;4977086;28;20208;-71
2022/04/23 07:24:19;;;;;;;7.37;6.77;;;;;;;11.18;75.13;96794.50;4976787;28;20212;-71
2022/04/23 07:26:46;;;;;;;7.40;6.80;;;;;;;11.03;75.97;96804.97;4976853;28;20204;-71
2022/04/23 07:29:12;;;;;;;7.37;6.77;;;;;;;11.11;76.07;96799.22;4976434;28;20731;-71
2022/04/23 07:31:39;;;;;;;6.80;6.20;;;;;;;10.97;75.51;96795.38;4976815;28;20242;-71
2022/04/23 07:39:34;;;;;;;6.57;6.07;;;;;;;11.34;73.44;96796.22;4972214;28;20191;-71
2022/04/23 07:42:01;;;;;;;7.10;6.50;;;;;;;11.44;73.11;96795.50;4977106;28;20213;-71
2022/04/23 07:44:27;;;;;;;6.63;6.03;;;;;;;11.45;72.48;96799.78;4976797;28;20204;-71
2022/04/23 07:46:53;;;;;;;6.20;5.60;;;;;;;11.41;71.16;96790.69;4976481;28;20258;-71
2022/04/23 07:49:20;;;;;;;6.80;6.20;;;;;;;11.46;71.97;96799.53;4976649;28;20189;-71
2022/04/23 07:51:47;;;;;;;6.67;6.07;;;;;;;11.49;71.71;96803.53;4975419;28;20209;-71
2022/04/23 07:54:14;;;;;;;6.00;5.50;;;;;;;11.75;70.77;96792.81;4976005;28;20637;-71
2022/04/23 07:56:41;;;;;;;6.43;5.83;;;;;;;11.89;70.15;96785.22;4976269;28;20280;-71
2022/04/23 07:59:08;;;;;;;6.47;5.93;;;;;;;11.63;71.79;96788.75;4976550;28;20204;-71
2022/04/23 08:01:34;;;;;;;6.43;5.83;;;;;;;11.79;71.17;96790.44;4976532;28;20557;-71
2022/04/23 08:04:03;;;;;;;6.87;6.13;;;;;;;12.07;69.32;96792.78;4976294;28;20218;-72
2022/04/23 08:06:30;;;;;;;6.57;6.00;;;;;;;12.49;69.33;96788.97;4975812;28;20213;-71
2022/04/23 08:08:56;;;;;;;6.10;5.60;;;;;;;12.68;68.76;96790.09;4972964;28;20205;-72
2022/04/23 08:11:23;;;;;;;6.10;5.60;;;;;;;12.56;68.21;96784.19;4975131;28;20216;-71
2022/04/23 08:13:50;;;;;;;6.53;5.80;;;;;;;12.38;67.63;96784.66;4975890;28;20702;-71
2022/04/23 08:16:18;;;;;;;6.13;5.63;;;;;;;12.43;67.30;96789.22;4975841;28;20545;-71
2022/04/23 08:18:44;;;;;;;6.10;5.60;;;;;;;12.15;67.75;96795.72;4976075;28;20231;-71
2022/04/23 08:21:11;;;;;;;6.17;5.67;;;;;;;12.21;68.40;96791.25;4975803;28;20221;-71
2022/04/23 08:23:37;;;;;;;6.43;5.80;;;;;;;12.26;67.92;96789.38;4975133;28;20640;-71
2022/04/23 08:26:05;;;;;;;6.33;5.73;;;;;;;12.15;68.12;96786.94;4975857;28;20217;-71
2022/04/23 08:31:16;;;;;;;6.50;5.93;;;;;;;12.22;68.14;96798.16;4975667;28;20311;-71
2022/04/23 08:34:00;;;;;;;6.90;6.30;;;;;;;12.11;68.71;96799.19;4975704;28;20213;-71
2022/04/23 08:36:29;;;;;;;6.60;6.00;;;;;;;12.29;69.00;96798.75;4974602;28;20217;-71
2022/04/23 08:39:00;;;;;;;6.17;5.67;;;;;;;12.26;68.04;96796.59;4975346;28;20262;-71
2022/04/23 08:41:29;;;;;;;8.63;6.83;;;;;;;12.16;67.88;96796.53;4975621;28;20206;-71
2022/04/23 08:44:05;;;;;;;7.17;6.47;;;;;;;12.20;67.72;96795.75;4974330;28;20731;-71
2022/04/23 08:46:32;;;;;;;7.00;6.40;;;;;;;12.23;68.24;96792.59;4975204;28;20659;-71
2022/04/23 08:49:08;;;;;;;6.83;6.23;;;;;;;12.48;67.37;96786.56;4975272;28;20223;-71
2022/04/23 08:51:35;;;;;;;7.00;6.37;;;;;;;12.68;65.78;96794.59;4975472;28;20258;-71
2022/04/23 08:54:13;;;;;;;6.70;6.10;;;;;;;12.41;66.34;96784.13;4975422;28;20211;-71
2022/04/23 08:56:42;;;;;;;6.33;5.83;;;;;;;12.61;66.39;96781.53;4975326;28;20215;-71
2022/04/23 08:59:09;;;;;;;7.00;6.30;;;;;;;12.71;65.91;96794.88;4973767;28;20214;-71
2022/04/23 09:01:37;;;;;;;7.23;6.53;;;;;;;12.99;64.80;96785.66;4975030;28;20214;-71
2022/04/23 09:04:04;;;;;;;8.47;6.60;;;;;;;12.98;64.91;96781.38;4975517;28;20207;-71
2022/04/23 09:06:39;;;;;;;7.57;6.87;;;;;;;12.64;65.25;96781.00;4975153;28;20214;-71
2022/04/23 09:09:12;;;;;;;7.57;6.87;;;;;;;12.67;65.94;96775.16;4975280;28;20194;-71
2022/04/23 09:11:39;;;;;;;7.07;6.47;;;;;;;12.82;66.54;96780.53;4974905;28;20633;-71
2022/04/23 09:14:07;;;;;;;7.23;6.53;;;;;;;12.81;65.52;96781.59;4973725;28;20215;-71
2022/04/23 09:25:11;;;;;;;7.53;6.83;;;;;;;12.84;65.39;96789.06;4972027;28;20677;-71
2022/04/23 09:27:43;;;;;;;6.83;6.23;;;;;;;12.72;65.75;96783.16;4974896;28;20234;-71
2022/04/23 09:30:11;;;;;;;6.87;6.27;;;;;;;12.92;65.91;96791.22;4972102;28;20669;-71
2022/04/23 09:32:38;;;;;;;6.87;6.27;;;;;;;12.56;65.78;96784.19;4973798;28;20206;-71
2022/04/23 09:35:07;;;;;;;5.83;5.23;;;;;;;12.98;65.10;96792.06;4975644;28;20257;-72
2022/04/23 09:40:21;;;;;;;7.17;6.57;;;;;;;13.32;64.81;96785.97;4974428;28;20200;-71
2022/04/23 09:42:57;;;;;;;6.27;5.67;;;;;;;12.78;65.01;96797.31;4974295;28;20598;-71
2022/04/23 09:45:26;;;;;;;6.30;5.47;;;;;;;12.92;64.68;96788.53;4973754;28;20222;-71
2022/04/23 09:47:53;;;;;;;7.87;5.47;;;;;;;13.28;64.86;96795.56;4974413;28;20235;-72
2022/04/23 09:50:19;;;;;;;6.10;5.13;;;;;;;13.39;62.85;96786.47;4974314;28;20713;-71
2022/04/23 09:52:46;;;;;;;5.37;4.90;;;;;;;12.96;63.54;96784.28;4974511;28;20218;-71
2022/04/23 09:55:21;;;;;;;5.47;4.97;;;;;;;13.21;64.52;96791.56;4974525;28;20334;-71
2022/04/23 09:57:48;;;;;;;5.03;4.63;;;;;;;13.14;64.01;96793.66;4972950;28;20287;-71
2022/04/23 10:00:15;;;;;;;5.30;4.80;;;;;;;13.16;62.86;96784.34;4974413;28;20211;-71
2022/04/23 10:02:44;;;;;;;6.23;4.87;;;;;;;13.30;63.03;96779.28;4974474;28;20214;-71
2022/04/23 10:05:11;;;;;;;5.50;4.47;;;;;;;13.18;63.71;96784.06;4974448;28;20213;-71
2022/04/23 10:07:44;;;;;;;5.80;5.30;;;;;;;13.33;62.72;96784.88;4974553;28;20238;-71
2022/04/23 10:10:14;;;;;;;5.50;5.00;;;;;;;13.17;63.08;96788.63;4956097;28;20211;-71
2022/04/23 10:12:44;;;;;;;5.07;4.60;;;;;;;13.38;62.84;96782.22;4974987;28;20214;-71
2022/04/23 10:15:11;;;;;;;5.03;4.53;;;;;;;13.68;62.41;96782.22;4974136;28;20698;-71
2022/04/23 10:17:38;;;;;;;5.30;4.80;;;;;;;13.61;62.20;96784.34;4973942;28;20594;-71
2022/04/23 10:20:06;;;;;;;5.63;5.13;;;;;;;13.23;62.91;96790.22;4974352;28;20238;-71
2022/04/23 10:22:47;;;;;;;5.60;5.03;;;;;;;13.25;62.60;96787.28;4974641;28;20599;-71
2022/04/23 10:25:32;;;;;;;5.13;4.73;;;;;;;13.29;62.56;96783.81;4972275;28;20200;-71
2022/04/23 10:27:59;;;;;;;5.30;4.03;;;;;;;13.51;61.87;96791.53;4957148;28;20239;-72
2022/04/23 10:30:28;;;;;;;4.47;4.07;;;;;;;13.32;61.90;96783.28;4973081;28;20208;-71
2022/04/23 10:32:54;;;;;;;5.20;4.70;;;;;;;13.75;61.56;96780.03;4975211;28;20220;-72
2022/04/23 10:35:21;;;;;;;5.13;4.57;;;;;;;13.65;61.73;96774.72;4977883;28;20247;-71
2022/04/23 10:37:49;;;;;;;5.03;4.63;;;;;;;14.29;60.98;96766.88;4977843;28;20232;-71
2022/04/23 10:40:19;;;;;;;4.97;4.57;;;;;;;13.86;60.97;96767.47;4977674;28;20208;-71
2022/04/23 10:43:07;;;;;;;5.27;4.87;;;;;;;14.02;60.80;96769.84;4977583;28;20217;-71
2022/04/23 10:45:39;;;;;;;5.67;5.17;;;;;;;14.17;60.64;96769.81;4977586;28;20212;-71
2022/04/23 10:48:22;;;;;;;5.50;5.00;;;;;;;14.25;60.76;96761.25;4977342;28;20246;-71
2022/04/23 10:51:21;;;;;;;5.07;4.63;;;;;;;14.10;60.47;96763.94;4976403;28;20566;-70
2022/04/23 10:53:47;;;;;;;5.23;4.83;;;;;;;14.15;59.95;96761.25;4976900;28;20208;-71
2022/04/23 10:56:15;;;;;;;5.57;5.07;;;;;;;14.50;59.60;96749.66;4977388;28;20224;-71
2022/04/23 10:58:42;;;;;;;6.30;5.40;;;;;;;14.64;58.41;96762.16;4977441;28;20227;-70
2022/04/23 11:01:22;;;;;;;5.90;5.40;;;;;;;14.55;58.25;96763.78;4974702;28;20208;-70
2022/04/23 11:04:07;;;;;;;5.43;4.93;;;;;;;14.01;59.48;96760.22;4975489;28;20212;-71
2022/04/23 11:12:38;;;;;;;5.90;5.40;;;;;;;14.09;60.25;96758.88;4975153;28;20691;-71
2022/04/23 11:15:17;;;;;;;6.37;5.77;;;;;;;14.29;59.60;96754.28;4976891;28;20228;-71
2022/04/23 11:17:53;;;;;;;5.93;5.33;;;;;;;14.32;60.61;96748.41;4977170;28;20238;-71
2022/04/23 11:20:30;;;;;;;6.23;5.53;;;;;;;13.95;59.92;96755.16;4976291;28;20670;-71
2022/04/23 11:22:59;;;;;;;6.87;6.10;;;;;;;14.26;59.63;96754.03;4976847;28;20689;-71
2022/04/23 11:25:26;;;;;;;5.77;5.27;;;;;;;14.44;59.37;96743.53;4976871;28;20204;-71
2022/04/23 11:27:53;;;;;;;6.17;5.67;;;;;;;14.31;60.60;96743.31;4977078;28;20231;-71
2022/04/23 11:30:29;;;;;;;6.70;5.57;;;;;;;14.37;60.74;96748.38;4976822;28;20208;-71
2022/04/23 11:32:55;;;;;;;6.43;5.83;;;;;;;14.35;60.08;96739.03;4975438;28;20203;-70
2022/04/23 11:35:29;;;;;;;6.50;5.80;;;;;;;14.16;60.24;96740.69;4975793;28;20232;-71
2022/04/23 11:37:56;;;;;;;6.53;5.93;;;;;;;14.04;60.32;96746.34;4976647;28;20227;-71
2022/04/23 11:40:28;;;;;;;6.20;5.67;;;;;;;14.03;60.85;96736.72;4976509;28;20212;-71
2022/04/23 11:42:54;;;;;;;6.33;5.63;;;;;;;14.49;59.89;96737.34;4976661;28;20212;-70
2022/04/23 11:45:23;;;;;;;7.03;6.33;;;;;;;14.29;59.80;96737.47;4976440;28;20218;-71
2022/04/23 11:47:50;;;;;;;7.60;5.57;;;;;;;14.72;58.65;96728.66;4976138;28;20310;-71
2022/04/23 11:50:22;;;;;;;7.10;6.43;;;;;;;14.49;58.62;96732.00;4974902;28;20214;-71
2022/04/23 11:52:59;;;;;;;7.43;6.73;;;;;;;14.55;59.20;96726.34;4974565;28;20208;-71
2022/04/23 11:55:27;;;;;;;7.03;6.27;;;;;;;14.62;58.42;96724.19;4976352;28;20227;-71
2022/04/23 11:57:58;;;;;;;6.90;6.30;;;;;;;14.87;58.91;96732.06;4975776;28;20228;-70
2022/04/23 12:00:25;;;;;;;6.70;6.10;;;;;;;15.09;58.26;96727.06;4976192;28;20197;-71